createdAt,value
2023-05-12T00:00:27.441Z,27.70
2023-05-12T00:02:56.754Z,27.80
2023-05-12T00:05:26.190Z,27.80
2023-05-12T00:07:55.462Z,27.80
2023-05-12T00:10:25.232Z,27.80
2023-05-12T00:12:56.474Z,27.80
2023-05-12T00:15:25.748Z,27.80
2023-05-12T00:17:54.988Z,27.90
2023-05-12T00:20:24.324Z,27.90
2023-05-12T00:22:53.559Z,27.90
2023-05-12T00:25:22.738Z,28.00
2023-05-12T00:27:51.894Z,28.00
2023-05-12T00:30:22.214Z,28.00
2023-05-12T00:32:51.794Z,28.10
2023-05-12T00:35:21.123Z,28.10
2023-05-12T00:37:50.312Z,28.20
2023-05-12T00:40:19.887Z,28.20
2023-05-12T00:42:49.349Z,28.30
2023-05-12T00:45:18.752Z,28.30
2023-05-12T00:47:48.169Z,28.40
2023-05-12T00:50:19.316Z,28.50
2023-05-12T00:52:50.996Z,28.50
2023-05-12T00:55:20.709Z,28.50
2023-05-12T00:57:50.053Z,28.60
2023-05-12T01:00:19.736Z,28.60
2023-05-12T01:02:49.479Z,28.70
2023-05-12T01:05:18.945Z,28.70
2023-05-12T01:07:49.739Z,28.80
2023-05-12T01:10:23.659Z,28.80
2023-05-12T01:12:53.023Z,28.80
2023-05-12T01:15:22.318Z,28.80
2023-05-12T01:18:03.471Z,28.80
2023-05-12T01:20:34.304Z,28.90
2023-05-12T01:23:04.630Z,28.90
2023-05-12T01:25:36.455Z,28.90
2023-05-12T01:28:10.711Z,29.00
2023-05-12T01:30:45.168Z,29.10
2023-05-12T01:33:17.869Z,29.10
2023-05-12T01:35:47.289Z,29.20
2023-05-12T01:38:16.517Z,29.30
2023-05-12T01:40:46.483Z,29.40
2023-05-12T01:43:15.800Z,29.40
2023-05-12T01:45:45.206Z,29.40
2023-05-12T01:48:14.586Z,29.50
2023-05-12T01:50:43.924Z,29.60
2023-05-12T01:53:13.505Z,29.70
2023-05-12T01:55:44.868Z,29.80
2023-05-12T01:58:14.221Z,29.90
2023-05-12T02:00:43.568Z,29.90
2023-05-12T02:03:12.898Z,30.00
2023-05-12T02:05:42.318Z,30.10
2023-05-12T02:08:11.532Z,30.20
2023-05-12T02:10:40.901Z,30.30
2023-05-12T02:13:10.222Z,30.40
2023-05-12T02:15:39.561Z,30.40
2023-05-12T02:18:08.932Z,30.50
2023-05-12T02:20:38.545Z,30.50
2023-05-12T02:23:07.873Z,30.60
2023-05-12T02:25:37.126Z,30.60
2023-05-12T02:28:09.090Z,30.70
2023-05-12T02:30:39.274Z,30.80
2023-05-12T02:33:08.581Z,30.80
2023-05-12T02:35:37.750Z,30.80
2023-05-12T02:38:07.115Z,30.90
2023-05-12T02:40:36.445Z,31.00
2023-05-12T02:43:05.865Z,31.10
2023-05-12T02:45:36.343Z,31.20
2023-05-12T02:48:05.922Z,31.20
2023-05-12T02:50:35.162Z,31.20
2023-05-12T02:53:04.419Z,31.30
2023-05-12T02:55:33.750Z,31.30
2023-05-12T02:58:02.968Z,31.40
2023-05-12T03:00:32.385Z,31.50
2023-05-12T03:03:01.725Z,31.60
2023-05-12T03:05:31.008Z,31.70
2023-05-12T03:08:00.950Z,31.80
2023-05-12T03:10:30.267Z,31.80
2023-05-12T03:12:59.490Z,31.80
2023-05-12T03:15:28.660Z,31.90
2023-05-12T03:17:57.893Z,31.90
2023-05-12T03:20:27.174Z,32.00
2023-05-12T03:22:56.547Z,32.00
2023-05-12T03:25:25.823Z,32.00
2023-05-12T03:27:55.049Z,31.90
2023-05-12T03:30:24.318Z,31.80
2023-05-12T03:32:53.493Z,31.70
2023-05-12T03:35:22.867Z,31.70
2023-05-12T03:37:52.088Z,31.60
2023-05-12T03:40:21.902Z,31.50
2023-05-12T03:42:51.325Z,31.50
2023-05-12T03:45:20.622Z,31.50
2023-05-12T03:47:49.936Z,31.50
2023-05-12T03:50:19.709Z,31.50
2023-05-12T03:52:49.055Z,31.50
2023-05-12T03:55:18.538Z,31.60
2023-05-12T03:57:50.118Z,31.60
2023-05-12T04:00:20.396Z,31.70
2023-05-12T04:02:49.856Z,31.70
2023-05-12T04:05:19.185Z,31.80
2023-05-12T04:07:48.480Z,31.90
2023-05-12T04:10:17.852Z,32.10
2023-05-12T04:12:47.157Z,32.20
2023-05-12T04:15:16.747Z,32.40
2023-05-12T04:17:45.939Z,32.50
2023-05-12T04:20:15.169Z,32.60
2023-05-12T04:22:45.327Z,32.60
2023-05-12T04:25:14.483Z,32.60
2023-05-12T04:27:43.683Z,32.70
2023-05-12T04:30:13.147Z,32.70
2023-05-12T04:32:42.289Z,32.70
2023-05-12T04:35:11.629Z,32.70
2023-05-12T04:37:40.871Z,32.70
2023-05-12T04:40:11.235Z,32.70
2023-05-12T04:42:40.536Z,32.70
2023-05-12T04:45:10.834Z,32.70
2023-05-12T04:47:40.256Z,32.80
2023-05-12T04:50:11.656Z,32.80
2023-05-12T04:52:41.423Z,32.80
2023-05-12T04:55:11.613Z,32.70
2023-05-12T04:57:42.287Z,32.60
2023-05-12T05:00:12.529Z,32.50
2023-05-12T05:02:42.528Z,32.30
2023-05-12T05:05:12.885Z,32.20
2023-05-12T05:07:42.082Z,32.00
2023-05-12T05:10:12.037Z,32.00
2023-05-12T05:12:41.385Z,31.80
2023-05-12T05:15:12.508Z,31.70
2023-05-12T05:17:44.172Z,31.70
2023-05-12T05:20:15.536Z,31.60
2023-05-12T05:22:45.094Z,31.60
2023-05-12T05:25:15.108Z,31.60
2023-05-12T05:27:44.369Z,31.60
2023-05-12T05:30:14.047Z,31.60
2023-05-12T05:32:43.438Z,31.60
2023-05-12T05:35:12.755Z,31.50
2023-05-12T05:37:42.488Z,31.50
2023-05-12T05:40:12.307Z,31.40
2023-05-12T05:42:41.693Z,31.30
2023-05-12T05:45:11.748Z,31.20
2023-05-12T05:47:41.265Z,31.00
2023-05-12T05:50:11.197Z,30.80
2023-05-12T05:52:40.431Z,30.60
2023-05-12T05:55:10.029Z,30.30
2023-05-12T05:57:39.442Z,30.00
2023-05-12T06:00:10.867Z,29.80
2023-05-12T06:02:40.407Z,29.50
2023-05-12T06:05:10.688Z,29.30
2023-05-12T06:07:40.112Z,29.00
2023-05-12T06:10:10.141Z,28.80
2023-05-12T06:12:41.514Z,28.60
2023-05-12T06:15:12.041Z,28.50
2023-05-12T06:17:41.648Z,28.30
2023-05-12T06:20:11.556Z,28.20
2023-05-12T06:22:43.168Z,28.10
2023-05-12T06:25:12.738Z,28.00
2023-05-12T06:27:42.090Z,27.90
2023-05-12T06:30:14.941Z,27.90
2023-05-12T06:32:45.324Z,27.80
2023-05-12T06:35:14.667Z,27.80
2023-05-12T06:37:45.846Z,27.70
2023-05-12T06:40:15.466Z,27.70
2023-05-12T06:42:45.331Z,27.60
2023-05-12T06:45:14.679Z,27.60
2023-05-12T06:47:44.301Z,27.60
2023-05-12T06:50:13.628Z,27.60
2023-05-12T06:52:42.936Z,27.60
2023-05-12T06:55:12.298Z,27.60
2023-05-12T06:57:42.497Z,27.60
2023-05-12T07:00:12.449Z,27.60
2023-05-12T07:02:41.787Z,27.60
2023-05-12T07:05:11.488Z,27.50
2023-05-12T07:07:40.778Z,27.50
2023-05-12T07:10:10.579Z,27.50
2023-05-12T07:12:40.398Z,27.50
2023-05-12T07:15:10.951Z,27.40
2023-05-12T07:17:40.167Z,27.40
2023-05-12T07:20:10.815Z,27.30
2023-05-12T07:22:39.928Z,27.20
2023-05-12T07:25:09.701Z,27.20
2023-05-12T07:27:38.949Z,27.10
2023-05-12T07:30:09.710Z,27.00
2023-05-12T07:32:39.110Z,26.90
2023-05-12T07:35:08.987Z,26.90
2023-05-12T07:37:38.172Z,26.90
2023-05-12T07:40:08.381Z,26.90
2023-05-12T07:42:37.509Z,26.80
2023-05-12T07:45:07.113Z,26.80
2023-05-12T07:47:36.426Z,26.70
2023-05-12T07:50:05.955Z,26.70
2023-05-12T07:52:35.364Z,26.70
2023-05-12T07:55:04.624Z,26.80
2023-05-12T07:57:33.716Z,26.80
2023-05-12T08:00:02.844Z,26.70
2023-05-12T08:02:32.078Z,26.70
2023-05-12T08:05:01.334Z,26.70
2023-05-12T08:07:30.534Z,26.60
2023-05-12T08:09:59.938Z,26.60
2023-05-12T08:12:29.054Z,26.60
2023-05-12T08:14:58.328Z,26.60
2023-05-12T08:17:29.257Z,26.60
2023-05-12T08:19:58.773Z,26.60
2023-05-12T08:22:28.013Z,26.60
2023-05-12T08:24:57.052Z,26.60
2023-05-12T08:27:26.283Z,26.60
2023-05-12T08:29:55.455Z,26.60
2023-05-12T08:32:24.834Z,26.60
2023-05-12T08:34:54.090Z,26.70
2023-05-12T08:37:23.262Z,26.70
2023-05-12T08:39:53.916Z,26.70
2023-05-12T08:43:24.032Z,26.80
2023-05-12T08:45:58.617Z,26.80
2023-05-12T08:48:30.527Z,26.90
2023-05-12T08:51:00.741Z,27.00
2023-05-12T08:53:31.424Z,27.00
2023-05-12T08:58:42.214Z,27.10
2023-05-12T09:01:15.619Z,27.10
2023-05-12T09:03:45.477Z,27.10
2023-05-12T09:06:15.969Z,27.10
2023-05-12T09:08:46.579Z,27.10
2023-05-12T09:11:17.621Z,27.20
2023-05-12T09:14:10.038Z,27.20
2023-05-12T09:16:51.918Z,27.20
2023-05-12T09:19:24.033Z,27.30
2023-05-12T09:21:53.985Z,27.30
2023-05-12T09:24:35.927Z,27.30
2023-05-12T09:27:06.167Z,27.30
2023-05-12T09:29:45.066Z,27.30
2023-05-12T09:32:35.251Z,27.30
2023-05-12T09:35:12.196Z,27.40
2023-05-12T09:37:41.834Z,27.40
2023-05-12T09:40:17.249Z,27.40
2023-05-12T09:42:47.699Z,27.40
2023-05-12T09:45:17.253Z,27.40
2023-05-12T09:47:46.447Z,27.40
2023-05-12T09:50:15.630Z,27.40
2023-05-12T09:52:44.998Z,27.40
2023-05-12T09:55:15.354Z,27.30
2023-05-12T09:57:46.892Z,27.40
2023-05-12T10:00:37.049Z,27.30
2023-05-12T10:03:18.794Z,27.30
2023-05-12T10:05:57.276Z,27.30
2023-05-12T10:08:35.314Z,27.30
2023-05-12T10:11:07.910Z,27.40
2023-05-12T10:13:37.504Z,27.30
2023-05-12T10:16:08.278Z,27.30
2023-05-12T10:18:38.452Z,27.40
2023-05-12T10:21:09.433Z,27.40
2023-05-12T10:23:45.282Z,27.40
2023-05-12T10:26:15.463Z,27.40
2023-05-12T10:28:45.887Z,27.40
2023-05-12T10:31:16.856Z,27.40
2023-05-12T10:33:56.762Z,27.40
2023-05-12T10:36:26.237Z,27.40
2023-05-12T10:38:57.166Z,27.40
2023-05-12T10:41:34.978Z,27.40
2023-05-12T10:44:04.181Z,27.40
2023-05-12T10:46:33.912Z,27.40
2023-05-12T10:49:09.597Z,27.40
2023-05-12T10:51:49.431Z,27.30
2023-05-12T10:54:25.972Z,27.40
2023-05-12T10:57:03.020Z,27.30
2023-05-12T10:59:33.029Z,27.30
2023-05-12T11:02:05.341Z,27.30
2023-05-12T11:04:54.210Z,27.30
2023-05-12T11:07:30.969Z,27.30
2023-05-12T11:10:05.477Z,27.30
2023-05-12T11:12:36.968Z,27.30
2023-05-12T11:15:08.104Z,27.30
2023-05-12T11:17:41.880Z,27.30
2023-05-12T11:20:12.172Z,27.30
2023-05-12T11:22:44.293Z,27.30
2023-05-12T11:25:14.923Z,27.30
2023-05-12T11:27:52.224Z,27.30
2023-05-12T11:30:21.572Z,27.30
2023-05-12T11:33:02.048Z,27.30
2023-05-12T11:35:33.503Z,27.30
2023-05-12T11:38:03.833Z,27.30
2023-05-12T11:40:33.652Z,27.30
2023-05-12T11:43:12.965Z,27.20
2023-05-12T11:45:42.852Z,27.30
2023-05-12T11:48:15.536Z,27.20
2023-05-12T11:50:50.043Z,27.20
2023-05-12T11:53:22.348Z,27.10
2023-05-12T11:55:57.340Z,27.10
2023-05-12T11:58:31.657Z,27.10
2023-05-12T12:01:13.157Z,27.10
2023-05-12T12:03:50.722Z,27.10
2023-05-12T12:06:22.876Z,27.10
2023-05-12T12:09:02.774Z,27.00
2023-05-12T12:11:35.761Z,27.00
2023-05-12T12:14:05.512Z,27.00
2023-05-12T12:16:37.836Z,27.00
2023-05-12T12:19:11.275Z,27.00
2023-05-12T12:21:44.513Z,27.00
2023-05-12T12:24:18.156Z,27.00
2023-05-12T12:26:50.207Z,27.00
2023-05-12T12:29:24.837Z,27.00
2023-05-12T12:32:00.589Z,27.00
2023-05-12T12:34:35.846Z,27.00
2023-05-12T12:37:13.364Z,27.00
2023-05-12T12:39:51.900Z,27.10
2023-05-12T12:42:24.504Z,27.00
2023-05-12T12:44:56.784Z,27.00
2023-05-12T12:47:26.099Z,27.00
2023-05-12T12:49:59.529Z,27.00
2023-05-12T12:52:31.139Z,27.00
2023-05-12T12:55:01.632Z,27.00
2023-05-12T12:57:35.056Z,27.00
2023-05-12T13:00:07.599Z,27.00
2023-05-12T13:02:40.527Z,27.00
2023-05-12T13:05:10.447Z,27.00
2023-05-12T13:07:40.902Z,27.00
2023-05-12T13:10:12.550Z,27.00
2023-05-12T13:12:46.079Z,26.90
2023-05-12T13:15:23.104Z,26.90
2023-05-12T13:17:57.378Z,26.90
2023-05-12T13:20:28.559Z,26.90
2023-05-12T13:23:03.271Z,26.90
2023-05-12T13:25:35.200Z,26.90
2023-05-12T13:28:08.196Z,26.90
2023-05-12T13:30:42.230Z,26.90
2023-05-12T13:33:14.482Z,26.90
2023-05-12T13:35:43.969Z,26.80
2023-05-12T13:38:13.167Z,26.90
2023-05-12T13:40:43.001Z,26.90
2023-05-12T13:43:13.423Z,26.90
2023-05-12T13:45:42.583Z,26.90
2023-05-12T13:48:11.994Z,26.80
2023-05-12T13:50:41.526Z,26.90
2023-05-12T13:53:10.803Z,26.90
2023-05-12T13:55:40.934Z,26.80
2023-05-12T13:58:10.378Z,26.90
2023-05-12T14:00:39.637Z,26.90
2023-05-12T14:03:09.319Z,26.90
2023-05-12T14:05:38.576Z,26.90
2023-05-12T14:08:09.835Z,26.90
2023-05-12T14:10:39.068Z,26.90
2023-05-12T14:13:10.657Z,26.90
2023-05-12T14:15:48.516Z,26.90
2023-05-12T14:18:19.217Z,26.90
2023-05-12T14:20:49.067Z,26.90
2023-05-12T14:23:18.280Z,26.90
2023-05-12T14:25:47.501Z,26.90
2023-05-12T14:28:16.918Z,27.00
2023-05-12T14:30:46.255Z,27.00
2023-05-12T14:33:15.441Z,26.90
2023-05-12T14:35:52.827Z,27.00
2023-05-12T14:38:28.948Z,27.00
2023-05-12T14:40:58.469Z,27.00
2023-05-12T14:43:27.608Z,27.00
2023-05-12T14:45:56.894Z,27.00
2023-05-12T14:48:29.566Z,27.00
2023-05-12T14:50:59.532Z,27.00
2023-05-12T14:53:28.781Z,27.00
2023-05-12T14:55:57.952Z,27.00
2023-05-12T14:58:27.290Z,27.00
2023-05-12T15:01:00.304Z,27.00
2023-05-12T15:03:29.761Z,26.90
2023-05-12T15:06:06.390Z,26.90
2023-05-12T15:08:36.579Z,27.00
2023-05-12T15:11:06.017Z,27.00
2023-05-12T15:13:35.184Z,27.00
2023-05-12T15:16:05.655Z,26.90
2023-05-12T15:18:35.019Z,27.00
2023-05-12T15:21:04.281Z,27.00
2023-05-12T15:23:33.551Z,26.90
2023-05-12T15:26:27.010Z,26.90
2023-05-12T15:28:57.595Z,26.90
2023-05-12T15:31:29.515Z,26.90
2023-05-12T15:33:59.378Z,26.90
2023-05-12T15:36:28.608Z,26.90
2023-05-12T15:38:57.973Z,26.90
2023-05-12T15:41:27.152Z,27.00
2023-05-12T15:43:56.310Z,26.90
2023-05-12T15:46:25.547Z,26.90
2023-05-12T15:48:54.762Z,27.00
2023-05-12T15:51:23.831Z,27.00
2023-05-12T15:53:53.548Z,27.00
2023-05-12T15:56:23.973Z,26.90
2023-05-12T15:58:53.200Z,26.90
2023-05-12T16:01:22.354Z,26.90
2023-05-12T16:03:55.782Z,26.90
2023-05-12T16:06:25.059Z,26.90
2023-05-12T16:08:54.362Z,26.90
2023-05-12T16:11:23.646Z,26.90
2023-05-12T16:13:54.344Z,26.90
2023-05-12T16:16:24.189Z,26.90
2023-05-12T16:18:53.487Z,26.90
2023-05-12T16:21:23.014Z,26.90
2023-05-12T16:23:52.377Z,26.90
2023-05-12T16:26:21.641Z,26.90
2023-05-12T16:28:50.739Z,26.90
2023-05-12T16:31:20.699Z,26.90
2023-05-12T16:33:50.034Z,26.80
2023-05-12T16:36:19.879Z,26.80
2023-05-12T16:38:49.544Z,26.80
2023-05-12T16:41:19.468Z,26.80
2023-05-12T16:43:48.798Z,26.80
2023-05-12T16:46:18.020Z,26.80
2023-05-12T16:48:47.245Z,26.80
2023-05-12T16:51:16.440Z,26.80
2023-05-12T16:53:45.841Z,26.70
2023-05-12T16:56:15.067Z,26.70
2023-05-12T16:58:45.247Z,26.70
2023-05-12T17:01:14.559Z,26.70
2023-05-12T17:03:43.858Z,26.70
2023-05-12T17:06:13.067Z,26.70
2023-05-12T17:08:42.617Z,26.70
2023-05-12T17:11:12.163Z,26.70
2023-05-12T17:13:41.425Z,26.70
2023-05-12T17:16:10.828Z,26.70
2023-05-12T17:21:12.507Z,26.60
2023-05-12T17:23:42.331Z,26.60
2023-05-12T17:26:11.517Z,26.60
2023-05-12T17:28:40.712Z,26.60
2023-05-12T17:31:10.264Z,26.60
2023-05-12T17:33:39.508Z,26.60
2023-05-12T17:36:12.854Z,26.60
2023-05-12T17:38:43.057Z,26.60
2023-05-12T17:41:12.363Z,26.50
2023-05-12T17:43:42.365Z,26.50
2023-05-12T17:46:11.693Z,26.50
2023-05-12T17:48:41.308Z,26.50
2023-05-12T17:51:10.506Z,26.50
2023-05-12T17:53:39.685Z,26.50
2023-05-12T17:56:09.064Z,26.50
2023-05-12T17:58:38.388Z,26.40
2023-05-12T18:01:07.660Z,26.40
2023-05-12T18:03:37.765Z,26.40
2023-05-12T18:06:07.064Z,26.40
2023-05-12T18:08:36.298Z,26.40
2023-05-12T18:11:05.526Z,26.40
2023-05-12T18:13:35.300Z,26.40
2023-05-12T18:16:04.756Z,26.40
2023-05-12T18:18:34.604Z,26.40
2023-05-12T18:21:03.807Z,26.40
2023-05-12T18:23:32.938Z,26.30
2023-05-12T18:26:02.237Z,26.30
2023-05-12T18:28:31.379Z,26.30
2023-05-12T18:31:06.017Z,26.30
2023-05-12T18:33:44.156Z,26.30
2023-05-12T18:36:13.511Z,26.30
2023-05-12T18:38:44.192Z,26.30
2023-05-12T18:41:13.813Z,26.30
2023-05-12T18:43:45.004Z,26.40
2023-05-12T18:46:14.326Z,26.40
2023-05-12T18:48:43.429Z,26.40
2023-05-12T18:51:13.305Z,26.40
2023-05-12T18:53:42.360Z,26.40
2023-05-12T18:56:11.489Z,26.40
2023-05-12T18:58:40.647Z,26.30
2023-05-12T19:01:09.787Z,26.30
2023-05-12T19:03:38.964Z,26.30
2023-05-12T19:06:08.128Z,26.30
2023-05-12T19:08:38.339Z,26.30
2023-05-12T19:11:07.628Z,26.30
2023-05-12T19:13:41.726Z,26.30
2023-05-12T19:16:10.840Z,26.30
2023-05-12T19:18:40.156Z,26.30
2023-05-12T19:21:09.676Z,26.30
2023-05-12T19:23:38.799Z,26.30
2023-05-12T19:26:08.274Z,26.30
2023-05-12T19:28:37.837Z,26.30
2023-05-12T19:31:07.128Z,26.30
2023-05-12T19:33:37.063Z,26.30
2023-05-12T19:36:06.888Z,26.30
2023-05-12T19:38:38.034Z,26.30
2023-05-12T19:41:07.234Z,26.30
2023-05-12T19:43:36.369Z,26.30
2023-05-12T19:46:05.548Z,26.30
2023-05-12T19:48:34.740Z,26.30
2023-05-12T19:51:04.118Z,26.30
2023-05-12T19:53:33.304Z,26.30
2023-05-12T19:56:03.188Z,26.30
2023-05-12T19:58:32.427Z,26.30
2023-05-12T20:01:01.632Z,26.30
2023-05-12T20:03:30.904Z,26.30
2023-05-12T20:06:00.202Z,26.30
2023-05-12T20:08:29.390Z,26.30
2023-05-12T20:10:58.864Z,26.30
2023-05-12T20:13:28.032Z,26.30
2023-05-12T20:15:57.411Z,26.30
2023-05-12T20:18:26.957Z,26.30
2023-05-12T20:20:56.722Z,26.30
2023-05-12T20:23:25.958Z,26.30
2023-05-12T20:25:55.233Z,26.30
2023-05-12T20:28:24.975Z,26.30
2023-05-12T20:30:54.365Z,26.30
2023-05-12T20:33:23.758Z,26.30
2023-05-12T20:35:52.967Z,26.30
2023-05-12T20:38:22.287Z,26.30
2023-05-12T20:40:51.761Z,26.30
2023-05-12T20:43:20.867Z,26.30
2023-05-12T20:45:50.020Z,26.30
2023-05-12T20:48:19.162Z,26.30
2023-05-12T20:50:48.332Z,26.20
2023-05-12T20:53:18.202Z,26.20
2023-05-12T20:55:47.302Z,26.20
2023-05-12T20:58:16.587Z,26.20
2023-05-12T21:00:45.692Z,26.20
2023-05-12T21:03:17.870Z,26.20
2023-05-12T21:05:48.975Z,26.20
2023-05-12T21:08:18.171Z,26.20
2023-05-12T21:10:47.965Z,26.20
2023-05-12T21:13:17.156Z,26.20
2023-05-12T21:15:46.425Z,26.20
2023-05-12T21:18:15.484Z,26.20
2023-05-12T21:20:44.848Z,26.20
2023-05-12T21:23:14.659Z,26.20
2023-05-12T21:25:43.771Z,26.10
2023-05-12T21:28:12.889Z,26.10
2023-05-12T21:30:42.000Z,26.10
2023-05-12T21:33:11.334Z,26.10
2023-05-12T21:35:40.518Z,26.10
2023-05-12T21:38:11.024Z,26.10
2023-05-12T21:40:40.779Z,26.10
2023-05-12T21:43:09.949Z,26.10
2023-05-12T21:45:39.108Z,26.10
2023-05-12T21:48:08.852Z,26.10
2023-05-12T21:50:38.231Z,26.10
2023-05-12T21:53:07.477Z,26.10
2023-05-12T21:55:36.647Z,26.10
2023-05-12T21:58:05.846Z,26.10
2023-05-12T22:00:34.948Z,26.10
2023-05-12T22:03:04.893Z,26.10
2023-05-12T22:05:34.194Z,26.10
2023-05-12T22:08:03.319Z,26.10
2023-05-12T22:10:33.021Z,26.10
2023-05-12T22:13:02.408Z,26.10
2023-05-12T22:15:31.693Z,26.10
2023-05-12T22:18:01.713Z,26.10
2023-05-12T22:20:30.960Z,26.10
2023-05-12T22:23:00.454Z,26.10
2023-05-12T22:25:29.726Z,26.10
2023-05-12T22:27:58.843Z,26.10
2023-05-12T22:30:28.055Z,26.10
2023-05-12T22:32:57.603Z,26.10
2023-05-12T22:35:26.856Z,26.10
2023-05-12T22:37:56.765Z,26.10
2023-05-12T22:40:27.994Z,26.10
2023-05-12T22:42:57.501Z,26.10
2023-05-12T22:45:26.899Z,26.00
2023-05-12T22:47:56.492Z,26.00
2023-05-12T22:50:25.753Z,26.00
2023-05-12T22:52:58.175Z,26.00
2023-05-12T22:55:31.578Z,26.00
2023-05-12T22:58:01.068Z,26.00
2023-05-12T23:00:30.430Z,26.00
2023-05-12T23:03:01.036Z,25.90
2023-05-12T23:05:30.115Z,25.90
2023-05-12T23:07:59.237Z,25.90
2023-05-12T23:10:28.433Z,25.90
2023-05-12T23:12:57.661Z,25.90
2023-05-12T23:15:26.937Z,25.90
2023-05-12T23:17:56.111Z,25.90
2023-05-12T23:20:25.327Z,25.90
2023-05-12T23:22:54.413Z,25.90
2023-05-12T23:25:23.678Z,25.90
2023-05-12T23:27:52.800Z,25.90
2023-05-12T23:30:22.179Z,25.90
2023-05-12T23:32:51.450Z,25.90
2023-05-12T23:35:20.660Z,25.90
2023-05-12T23:37:49.809Z,26.00
2023-05-12T23:40:19.049Z,26.00
2023-05-12T23:42:51.208Z,26.00
2023-05-12T23:45:21.121Z,26.00
2023-05-12T23:47:51.241Z,26.00
2023-05-12T23:50:20.583Z,26.00
2023-05-12T23:52:49.921Z,26.00
2023-05-12T23:55:19.209Z,26.00
2023-05-12T23:57:48.667Z,26.00
